createdAt,value
2019-03-16T00:01:12.687Z,42.40
2019-03-16T00:04:03.243Z,42.50
2019-03-16T00:06:55.291Z,42.70
2019-03-16T00:09:47.479Z,42.90
2019-03-16T00:12:39.602Z,43.80
2019-03-16T00:15:32.087Z,43.50
2019-03-16T00:18:23.836Z,44.00
2019-03-16T00:21:15.972Z,44.50
2019-03-16T00:24:07.892Z,44.80
2019-03-16T00:26:59.739Z,44.40
2019-03-16T00:29:51.290Z,45.70
2019-03-16T00:32:44.359Z,44.60
2019-03-16T00:35:36.306Z,45.50
2019-03-16T00:38:28.344Z,45.50
2019-03-16T00:41:20.353Z,45.40
2019-03-16T00:44:12.630Z,45.50
2019-03-16T00:47:05.619Z,45.80
2019-03-16T00:49:58.699Z,45.70
2019-03-16T00:52:50.794Z,46.00
2019-03-16T00:55:42.986Z,46.10
2019-03-16T00:58:35.367Z,46.50
2019-03-16T01:01:28.024Z,46.50
2019-03-16T01:04:20.717Z,46.60
2019-03-16T01:07:12.513Z,46.90
2019-03-16T01:10:04.630Z,46.80
2019-03-16T01:12:56.953Z,47.30
2019-03-16T01:15:49.220Z,48.00
2019-03-16T01:18:41.212Z,47.60
2019-03-16T01:21:33.730Z,47.60
2019-03-16T01:24:25.654Z,48.30
2019-03-16T01:27:17.548Z,47.70
2019-03-16T01:30:10.132Z,48.10
2019-03-16T01:33:02.666Z,48.30
2019-03-16T01:35:55.079Z,48.60
2019-03-16T01:38:48.142Z,48.20
2019-03-16T01:41:40.388Z,48.10
2019-03-16T01:44:32.800Z,47.80
2019-03-16T01:47:28.131Z,48.20
2019-03-16T01:50:21.782Z,48.10
2019-03-16T01:53:14.155Z,49.00
2019-03-16T01:56:06.481Z,48.50
2019-03-16T01:58:58.846Z,48.70
2019-03-16T02:01:50.957Z,49.00
2019-03-16T02:04:43.178Z,48.50
2019-03-16T02:07:35.784Z,49.10
2019-03-16T02:10:27.657Z,49.80
2019-03-16T02:13:19.901Z,49.70
2019-03-16T02:16:12.040Z,49.70
2019-03-16T02:19:04.259Z,49.70
2019-03-16T02:21:56.438Z,48.90
2019-03-16T02:24:48.551Z,49.40
2019-03-16T02:27:40.605Z,49.70
2019-03-16T02:30:33.650Z,49.40
2019-03-16T02:33:26.850Z,49.40
2019-03-16T02:36:19.100Z,48.90
2019-03-16T02:39:11.597Z,49.40
2019-03-16T02:42:03.772Z,49.20
2019-03-16T02:44:56.269Z,49.10
2019-03-16T02:47:48.459Z,48.90
2019-03-16T02:50:40.343Z,49.50
2019-03-16T02:53:32.625Z,50.60
2019-03-16T02:56:24.995Z,50.60
2019-03-16T02:59:17.401Z,50.80
2019-03-16T03:02:10.164Z,51.10
2019-03-16T03:05:02.312Z,51.10
2019-03-16T03:07:54.609Z,51.20
2019-03-16T03:10:47.372Z,51.30
2019-03-16T03:13:39.847Z,51.30
2019-03-16T03:16:32.054Z,51.30
2019-03-16T03:19:23.911Z,51.30
2019-03-16T03:22:16.059Z,51.30
2019-03-16T03:25:08.245Z,51.30
2019-03-16T03:28:00.364Z,54.00
2019-03-16T03:30:52.363Z,51.30
2019-03-16T03:33:58.449Z,51.00
2019-03-16T03:36:37.449Z,51.10
2019-03-16T03:42:27.060Z,50.60
2019-03-16T03:45:19.213Z,50.40
2019-03-16T03:48:11.671Z,50.60
2019-03-16T03:51:04.365Z,50.20
2019-03-16T03:53:56.866Z,50.10
2019-03-16T03:56:49.147Z,50.00
2019-03-16T03:59:41.280Z,49.90
2019-03-16T04:02:33.818Z,50.00
2019-03-16T04:05:26.352Z,49.90
2019-03-16T04:08:18.508Z,49.90
2019-03-16T04:11:11.151Z,49.90
2019-03-16T04:14:03.454Z,50.10
2019-03-16T04:16:58.663Z,50.20
2019-03-16T04:19:51.988Z,50.50
2019-03-16T04:22:44.096Z,50.20
2019-03-16T04:25:36.183Z,50.40
2019-03-16T04:28:28.257Z,50.40
2019-03-16T04:31:21.034Z,50.50
2019-03-16T04:34:28.070Z,50.40
2019-03-16T04:37:06.431Z,50.30
2019-03-16T04:40:00.424Z,50.20
2019-03-16T04:42:52.521Z,50.60
2019-03-16T04:45:44.908Z,50.30
2019-03-16T04:48:36.856Z,50.30
2019-03-16T04:51:28.971Z,50.30
2019-03-16T04:54:22.569Z,50.20
2019-03-16T04:57:14.876Z,50.00
2019-03-16T05:00:07.611Z,50.10
2019-03-16T05:02:59.468Z,50.00
2019-03-16T05:05:51.932Z,50.00
2019-03-16T05:08:47.748Z,50.00
2019-03-16T05:11:41.407Z,50.00
2019-03-16T05:14:40.026Z,50.20
2019-03-16T05:17:32.781Z,50.20
2019-03-16T05:20:26.621Z,50.40
2019-03-16T05:23:19.910Z,50.30
2019-03-16T05:26:13.766Z,50.40
2019-03-16T05:29:07.749Z,50.50
2019-03-16T05:32:02.259Z,50.50
2019-03-16T05:34:56.990Z,50.50
2019-03-16T05:38:09.075Z,50.60
2019-03-16T05:41:09.982Z,50.80
2019-03-16T05:44:11.127Z,50.80
2019-03-16T05:47:42.789Z,50.90
2019-03-16T05:50:57.394Z,51.00
2019-03-16T05:54:23.663Z,51.00
2019-03-16T05:57:30.389Z,51.20
2019-03-16T06:00:25.915Z,51.10
2019-03-16T06:03:20.371Z,51.20
2019-03-16T06:06:16.161Z,51.10
2019-03-16T06:09:18.323Z,51.20
2019-03-16T06:12:23.372Z,51.10
2019-03-16T06:15:18.302Z,51.10
2019-03-16T06:18:43.978Z,51.20
2019-03-16T06:21:40.390Z,51.30
2019-03-16T06:24:36.871Z,51.30
2019-03-16T06:27:30.615Z,51.30
2019-03-16T06:30:24.145Z,51.10
2019-03-16T06:33:17.863Z,51.00
2019-03-16T06:36:12.561Z,51.10
2019-03-16T06:39:05.811Z,50.90
2019-03-16T06:41:59.206Z,50.80
2019-03-16T06:44:54.626Z,50.80
2019-03-16T06:47:48.792Z,50.60
2019-03-16T06:50:42.706Z,50.70
2019-03-16T06:53:44.601Z,50.70
2019-03-16T06:56:37.082Z,50.60
2019-03-16T06:59:29.749Z,50.50
2019-03-16T07:02:23.824Z,50.60
2019-03-16T07:05:37.072Z,50.50
2019-03-16T07:08:17.792Z,50.40
2019-03-16T07:11:12.266Z,50.40
2019-03-16T07:14:05.803Z,50.40
2019-03-16T07:17:18.476Z,50.40
2019-03-16T07:20:19.767Z,50.30
2019-03-16T07:23:53.090Z,50.20
2019-03-16T07:27:32.398Z,50.10
2019-03-16T07:30:48.914Z,49.90
2019-03-16T07:34:08.239Z,50.00
2019-03-16T07:37:18.939Z,49.90
2019-03-16T07:40:14.816Z,49.80
2019-03-16T07:43:14.229Z,49.60
2019-03-16T07:46:08.536Z,49.60
2019-03-16T07:49:03.630Z,49.60
2019-03-16T07:52:01.268Z,49.60
2019-03-16T07:54:58.179Z,49.50
2019-03-16T07:57:50.283Z,49.50
2019-03-16T08:00:43.266Z,49.50
2019-03-16T08:03:44.887Z,49.60
2019-03-16T08:06:38.255Z,49.60
2019-03-16T08:09:30.824Z,49.60
2019-03-16T08:12:23.372Z,49.60
2019-03-16T08:18:26.740Z,49.80
2019-03-16T08:21:27.105Z,49.80
2019-03-16T08:24:20.445Z,49.70
2019-03-16T08:27:12.937Z,49.70
2019-03-16T08:30:10.235Z,49.80
2019-03-16T08:33:02.464Z,50.00
2019-03-16T08:35:55.160Z,50.00
2019-03-16T08:38:47.517Z,49.80
2019-03-16T08:41:39.943Z,49.70
2019-03-16T08:44:35.745Z,49.40
2019-03-16T08:47:28.104Z,49.40
2019-03-16T08:50:23.804Z,49.10
2019-03-16T08:53:22.878Z,48.90
2019-03-16T08:56:15.552Z,48.50
2019-03-16T08:59:08.100Z,48.50
2019-03-16T09:02:00.855Z,48.30
2019-03-16T09:04:53.224Z,48.30
2019-03-16T09:07:45.462Z,48.40
2019-03-16T09:10:38.055Z,48.10
2019-03-16T09:13:34.346Z,48.10
2019-03-16T09:16:26.800Z,48.20
2019-03-16T09:19:18.892Z,48.00
2019-03-16T09:25:39.340Z,48.10
2019-03-16T09:28:43.686Z,48.20
2019-03-16T09:31:37.121Z,48.00
2019-03-16T09:34:29.902Z,48.10
2019-03-16T09:37:23.246Z,48.00
2019-03-16T09:40:16.411Z,47.90
2019-03-16T09:43:09.872Z,48.00
2019-03-16T09:46:02.828Z,48.00
2019-03-16T09:48:55.596Z,48.00
2019-03-16T09:51:47.690Z,48.20
2019-03-16T09:54:40.175Z,48.10
2019-03-16T09:57:33.722Z,48.10
2019-03-16T10:00:39.270Z,48.10
2019-03-16T10:03:32.944Z,48.20
2019-03-16T10:06:36.995Z,48.10
2019-03-16T10:09:29.208Z,48.00
2019-03-16T10:12:21.764Z,47.80
2019-03-16T10:15:15.208Z,47.80
2019-03-16T10:18:09.781Z,47.90
2019-03-16T10:21:02.389Z,47.80
2019-03-16T10:23:54.910Z,47.80
2019-03-16T10:26:52.206Z,47.60
2019-03-16T10:29:47.434Z,47.70
2019-03-16T10:32:40.158Z,47.50
2019-03-16T10:35:36.032Z,47.40
2019-03-16T10:38:38.238Z,47.40
2019-03-16T10:41:40.028Z,47.50
2019-03-16T10:44:33.072Z,47.30
2019-03-16T10:47:25.358Z,47.30
2019-03-16T10:50:18.767Z,47.10
2019-03-16T10:53:24.154Z,47.20
2019-03-16T10:56:29.440Z,46.80
2019-03-16T10:59:22.278Z,46.60
2019-03-16T11:02:14.748Z,46.70
2019-03-16T11:05:08.403Z,46.70
2019-03-16T11:08:04.163Z,46.50
2019-03-16T11:11:07.967Z,46.60
2019-03-16T11:14:01.820Z,46.60
2019-03-16T11:16:54.855Z,46.50
2019-03-16T11:19:47.625Z,46.30
2019-03-16T11:22:40.584Z,46.30
2019-03-16T11:25:36.080Z,46.40
2019-03-16T11:28:28.521Z,46.30
2019-03-16T11:31:21.114Z,46.30
2019-03-16T11:34:13.700Z,46.40
2019-03-16T11:37:07.100Z,46.40
2019-03-16T11:40:00.587Z,46.30
2019-03-16T11:42:59.729Z,46.40
2019-03-16T11:45:54.084Z,46.40
2019-03-16T11:48:49.590Z,46.50
2019-03-16T11:51:42.103Z,46.60
2019-03-16T11:54:35.346Z,46.50
2019-03-16T11:57:27.882Z,46.30
2019-03-16T12:00:20.582Z,46.30
2019-03-16T12:03:12.851Z,46.40
2019-03-16T12:06:05.568Z,46.50
2019-03-16T12:08:57.702Z,46.50
2019-03-16T12:12:10.587Z,46.40
2019-03-16T12:15:13.474Z,46.50
2019-03-16T12:18:45.440Z,46.60
2019-03-16T12:22:25.515Z,46.60
2019-03-16T12:25:18.045Z,46.60
2019-03-16T12:28:12.737Z,46.60
2019-03-16T12:31:06.830Z,46.60
2019-03-16T12:33:59.163Z,46.50
2019-03-16T12:36:53.356Z,46.60
2019-03-16T12:39:46.548Z,46.70
2019-03-16T12:42:49.303Z,46.80
2019-03-16T12:45:45.599Z,46.80
2019-03-16T12:48:49.155Z,46.70
2019-03-16T12:51:50.424Z,46.60
2019-03-16T12:54:47.513Z,46.50
2019-03-16T12:58:10.901Z,46.50
2019-03-16T13:01:06.666Z,46.60
2019-03-16T13:03:59.077Z,46.70
2019-03-16T13:06:52.142Z,46.90
2019-03-16T13:09:51.052Z,47.70
2019-03-16T13:12:44.304Z,47.20
2019-03-16T13:15:36.772Z,47.20
2019-03-16T13:18:28.963Z,47.10
2019-03-16T13:21:21.188Z,47.20
2019-03-16T13:24:13.585Z,47.30
2019-03-16T13:27:06.120Z,47.30
2019-03-16T13:29:59.359Z,47.60
2019-03-16T13:32:51.995Z,47.70
2019-03-16T13:35:44.739Z,47.80
2019-03-16T13:38:37.213Z,48.00
2019-03-16T13:41:31.171Z,48.10
2019-03-16T13:44:23.653Z,48.20
2019-03-16T13:47:16.072Z,48.20
2019-03-16T13:50:09.281Z,48.30
2019-03-16T13:53:02.931Z,48.40
2019-03-16T13:55:55.725Z,48.50
2019-03-16T13:58:47.790Z,48.60
2019-03-16T14:01:41.017Z,48.70
2019-03-16T14:04:33.505Z,48.90
2019-03-16T14:07:26.896Z,48.90
2019-03-16T14:10:19.980Z,49.10
2019-03-16T14:13:19.728Z,49.10
2019-03-16T14:16:20.789Z,49.30
2019-03-16T14:19:27.950Z,49.30
2019-03-16T14:22:45.256Z,49.40
2019-03-16T14:25:44.008Z,49.60
2019-03-16T14:28:48.812Z,49.50
2019-03-16T14:31:46.694Z,49.20
2019-03-16T14:34:50.224Z,49.00
2019-03-16T14:38:05.788Z,49.00
2019-03-16T14:41:19.232Z,49.00
2019-03-16T14:44:22.532Z,48.90
2019-03-16T14:47:17.439Z,48.80
2019-03-16T14:50:15.834Z,48.90
2019-03-16T14:53:06.412Z,48.80
2019-03-16T14:56:01.391Z,48.80
2019-03-16T14:58:59.287Z,48.90
2019-03-16T15:01:53.381Z,48.90
2019-03-16T15:04:45.837Z,48.90
2019-03-16T15:07:39.747Z,48.80
2019-03-16T15:10:36.572Z,48.70
2019-03-16T15:13:28.738Z,48.70
2019-03-16T15:16:22.928Z,48.60
2019-03-16T15:19:15.717Z,48.60
2019-03-16T15:22:08.104Z,48.50
2019-03-16T15:25:03.368Z,48.50
2019-03-16T15:27:55.539Z,48.50
2019-03-16T15:30:50.991Z,48.50
2019-03-16T15:33:42.951Z,48.70
2019-03-16T15:36:34.862Z,48.80
2019-03-16T15:39:28.141Z,48.70
2019-03-16T15:42:22.670Z,48.70
2019-03-16T15:45:16.485Z,48.80
2019-03-16T15:48:09.249Z,48.70
2019-03-16T15:51:03.384Z,48.80
2019-03-16T15:53:59.823Z,48.80
2019-03-16T15:56:53.388Z,48.80
2019-03-16T15:59:48.440Z,48.80
2019-03-16T16:02:39.881Z,48.80
2019-03-16T16:05:31.758Z,48.80
2019-03-16T16:08:24.337Z,48.80
2019-03-16T16:11:16.683Z,48.80
2019-03-16T16:14:09.675Z,48.90
2019-03-16T16:17:04.882Z,48.90
2019-03-16T16:20:02.323Z,48.90
2019-03-16T16:22:56.579Z,48.90
2019-03-16T16:25:48.606Z,48.90
2019-03-16T16:28:40.457Z,49.00
2019-03-16T16:31:32.430Z,48.90
2019-03-16T16:34:24.757Z,48.90
2019-03-16T16:37:17.095Z,48.90
2019-03-16T16:40:10.017Z,48.90
2019-03-16T16:43:02.098Z,49.50
2019-03-16T16:45:55.978Z,49.30
2019-03-16T16:48:48.238Z,49.30
2019-03-16T16:51:41.901Z,49.30
2019-03-16T16:54:37.589Z,49.30
2019-03-16T16:57:28.043Z,49.30
2019-03-16T17:00:20.690Z,49.30
2019-03-16T17:03:13.092Z,49.30
2019-03-16T17:06:06.257Z,49.30
2019-03-16T17:08:58.664Z,49.10
2019-03-16T17:11:51.034Z,49.00
2019-03-16T17:14:43.525Z,49.00
2019-03-16T17:17:35.820Z,49.10
2019-03-16T17:20:29.553Z,49.00
2019-03-16T17:23:24.971Z,49.00
2019-03-16T17:26:17.132Z,49.00
2019-03-16T17:29:11.164Z,49.00
2019-03-16T17:32:04.258Z,49.00
2019-03-16T17:34:57.274Z,49.00
2019-03-16T17:37:49.544Z,49.00
2019-03-16T17:40:41.901Z,48.20
2019-03-16T17:43:36.063Z,46.60
2019-03-16T17:46:28.684Z,45.40
2019-03-16T17:49:22.279Z,44.30
2019-03-16T17:52:14.568Z,43.70
2019-03-16T17:55:07.500Z,43.10
2019-03-16T17:58:08.598Z,42.60
2019-03-16T18:01:00.707Z,42.00
2019-03-16T18:03:53.929Z,41.50
2019-03-16T18:06:46.838Z,41.30
2019-03-16T18:09:41.079Z,41.00
2019-03-16T18:12:33.347Z,40.90
2019-03-16T18:15:25.577Z,40.80
2019-03-16T18:18:18.698Z,40.50
2019-03-16T18:21:12.546Z,40.40
2019-03-16T18:24:05.470Z,40.10
2019-03-16T18:26:57.422Z,39.90
2019-03-16T18:29:49.649Z,39.80
2019-03-16T18:32:42.080Z,39.70
2019-03-16T18:35:34.863Z,39.60
2019-03-16T18:38:27.213Z,39.60
2019-03-16T18:41:19.509Z,39.60
2019-03-16T18:44:12.133Z,39.40
2019-03-16T18:47:04.588Z,39.50
2019-03-16T18:50:00.852Z,39.30
2019-03-16T18:52:53.255Z,39.20
2019-03-16T18:55:45.353Z,39.30
2019-03-16T18:58:38.242Z,39.20
2019-03-16T19:01:30.166Z,39.10
2019-03-16T19:04:22.183Z,39.00
2019-03-16T19:07:15.158Z,39.00
2019-03-16T19:10:07.212Z,39.20
2019-03-16T19:13:00.402Z,39.00
2019-03-16T19:15:59.146Z,39.00
2019-03-16T19:18:51.580Z,38.90
2019-03-16T19:21:45.257Z,38.80
2019-03-16T19:24:37.614Z,39.00
2019-03-16T19:27:29.786Z,39.10
2019-03-16T19:30:22.051Z,39.20
2019-03-16T19:33:14.171Z,39.20
2019-03-16T19:36:07.393Z,39.10
2019-03-16T19:38:59.360Z,39.30
2019-03-16T19:41:51.330Z,39.20
2019-03-16T19:44:43.322Z,39.20
2019-03-16T19:47:35.101Z,39.10
2019-03-16T19:50:30.051Z,38.90
2019-03-16T19:53:24.900Z,39.00
2019-03-16T19:56:16.947Z,38.90
2019-03-16T19:59:08.872Z,38.90
2019-03-16T20:02:00.971Z,38.90
2019-03-16T20:04:53.263Z,39.00
2019-03-16T20:07:45.049Z,39.00
2019-03-16T20:10:36.886Z,39.00
2019-03-16T20:13:28.722Z,38.90
2019-03-16T20:16:20.754Z,39.00
2019-03-16T20:19:12.981Z,39.00
2019-03-16T20:22:06.098Z,39.00
2019-03-16T20:24:58.151Z,39.10
2019-03-16T20:27:50.012Z,38.90
2019-03-16T20:30:42.372Z,38.80
2019-03-16T20:33:34.417Z,39.00
2019-03-16T20:36:26.591Z,38.80
2019-03-16T20:39:19.977Z,38.90
2019-03-16T20:42:12.192Z,38.80
2019-03-16T20:45:04.410Z,38.90
2019-03-16T20:47:56.848Z,38.90
2019-03-16T20:50:49.478Z,38.90
2019-03-16T20:53:42.833Z,38.80
2019-03-16T20:56:35.095Z,38.70
2019-03-16T20:59:27.257Z,38.80
2019-03-16T21:02:19.058Z,38.80
2019-03-16T21:05:11.405Z,38.60
2019-03-16T21:08:04.415Z,38.80
2019-03-16T21:10:56.442Z,38.60
2019-03-16T21:13:48.475Z,38.70
2019-03-16T21:16:40.392Z,38.50
2019-03-16T21:19:32.382Z,38.80
2019-03-16T21:22:35.010Z,38.70
2019-03-16T21:25:18.023Z,38.70
2019-03-16T21:28:10.178Z,38.40
2019-03-16T21:31:02.084Z,38.50
2019-03-16T21:33:54.391Z,38.50
2019-03-16T21:36:46.485Z,38.40
2019-03-16T21:39:38.566Z,38.50
2019-03-16T21:42:30.732Z,38.50
2019-03-16T21:45:22.865Z,38.50
2019-03-16T21:48:14.788Z,38.40
2019-03-16T21:51:06.993Z,38.40
2019-03-16T21:53:59.128Z,38.40
2019-03-16T21:56:51.484Z,38.40
2019-03-16T21:59:48.219Z,38.40
2019-03-16T22:02:40.217Z,38.20
2019-03-16T22:05:32.559Z,38.20
2019-03-16T22:08:24.752Z,38.30
2019-03-16T22:11:17.056Z,38.40
2019-03-16T22:14:09.395Z,38.40
2019-03-16T22:17:01.668Z,38.30
2019-03-16T22:19:53.975Z,38.30
2019-03-16T22:22:46.140Z,38.50
2019-03-16T22:25:38.317Z,38.40
2019-03-16T22:28:30.198Z,38.40
2019-03-16T22:31:22.608Z,38.30
2019-03-16T22:34:17.082Z,38.30
2019-03-16T22:37:09.660Z,38.20
2019-03-16T22:40:01.760Z,38.30
2019-03-16T22:42:53.846Z,38.20
2019-03-16T22:45:46.220Z,38.10
2019-03-16T22:48:38.188Z,38.20
2019-03-16T22:51:31.472Z,38.10
2019-03-16T22:54:23.793Z,38.10
2019-03-16T22:57:15.842Z,38.10
2019-03-16T23:00:08.873Z,38.10
2019-03-16T23:03:02.290Z,38.10
2019-03-16T23:05:54.453Z,38.10
2019-03-16T23:08:46.667Z,38.30
2019-03-16T23:11:38.844Z,38.60
2019-03-16T23:14:30.950Z,38.60
2019-03-16T23:17:23.166Z,38.70
2019-03-16T23:20:15.462Z,39.00
2019-03-16T23:23:07.636Z,39.30
2019-03-16T23:25:59.827Z,38.90
2019-03-16T23:28:52.133Z,39.30
2019-03-16T23:31:44.450Z,39.70
2019-03-16T23:34:37.435Z,39.70
2019-03-16T23:37:29.654Z,40.00
2019-03-16T23:40:21.796Z,40.20
2019-03-16T23:43:14.000Z,40.50
2019-03-16T23:46:06.162Z,40.60
2019-03-16T23:48:58.252Z,40.60
2019-03-16T23:51:50.344Z,40.80
2019-03-16T23:54:42.362Z,41.00
2019-03-16T23:57:34.586Z,41.10
